sensor_id;sensor_type;location;lat;lon;timestamp;temperature;humidity
18444;DHT22;9350;53.176;8.194;2022-10-22T00:01:25;12.70;99.90
18444;DHT22;9350;53.176;8.194;2022-10-22T00:03:52;12.80;99.90
18444;DHT22;9350;53.176;8.194;2022-10-22T00:06:20;12.70;99.90
18444;DHT22;9350;53.176;8.194;2022-10-22T00:08:47;12.70;99.90
18444;DHT22;9350;53.176;8.194;2022-10-22T00:11:16;12.70;99.90
18444;DHT22;9350;53.176;8.194;2022-10-22T00:13:43;12.70;99.90
18444;DHT22;9350;53.176;8.194;2022-10-22T00:16:11;12.70;99.90
18444;DHT22;9350;53.176;8.194;2022-10-22T00:18:38;12.80;99.90
18444;DHT22;9350;53.176;8.194;2022-10-22T00:21:06;12.70;99.90
18444;DHT22;9350;53.176;8.194;2022-10-22T00:23:34;12.70;99.90
18444;DHT22;9350;53.176;8.194;2022-10-22T00:26:01;12.70;99.90
18444;DHT22;9350;53.176;8.194;2022-10-22T00:28:27;12.70;99.90
18444;DHT22;9350;53.176;8.194;2022-10-22T00:30:55;12.60;99.90
18444;DHT22;9350;53.176;8.194;2022-10-22T00:33:22;12.60;99.90
18444;DHT22;9350;53.176;8.194;2022-10-22T00:35:49;12.60;99.90
18444;DHT22;9350;53.176;8.194;2022-10-22T00:38:16;12.60;99.90
18444;DHT22;9350;53.176;8.194;2022-10-22T00:40:44;12.60;99.90
18444;DHT22;9350;53.176;8.194;2022-10-22T00:43:11;12.50;99.90
18444;DHT22;9350;53.176;8.194;2022-10-22T00:45:39;12.50;99.90
18444;DHT22;9350;53.176;8.194;2022-10-22T00:48:07;12.50;99.90
18444;DHT22;9350;53.176;8.194;2022-10-22T00:50:37;12.50;99.90
18444;DHT22;9350;53.176;8.194;2022-10-22T00:53:09;12.50;99.90
18444;DHT22;9350;53.176;8.194;2022-10-22T00:55:36;12.50;99.90
18444;DHT22;9350;53.176;8.194;2022-10-22T00:58:05;12.40;99.90
18444;DHT22;9350;53.176;8.194;2022-10-22T01:00:32;12.40;99.90
18444;DHT22;9350;53.176;8.194;2022-10-22T01:02:59;12.40;99.90
18444;DHT22;9350;53.176;8.194;2022-10-22T01:05:27;12.40;99.90
18444;DHT22;9350;53.176;8.194;2022-10-22T01:07:54;12.40;99.90
18444;DHT22;9350;53.176;8.194;2022-10-22T01:10:30;12.40;99.90
18444;DHT22;9350;53.176;8.194;2022-10-22T01:13:12;12.40;99.90
18444;DHT22;9350;53.176;8.194;2022-10-22T01:15:47;12.40;99.90
18444;DHT22;9350;53.176;8.194;2022-10-22T01:18:20;12.30;99.90
18444;DHT22;9350;53.176;8.194;2022-10-22T01:20:57;12.30;99.90
18444;DHT22;9350;53.176;8.194;2022-10-22T01:26:24;12.30;99.90
18444;DHT22;9350;53.176;8.194;2022-10-22T01:29:01;12.30;99.90
18444;DHT22;9350;53.176;8.194;2022-10-22T01:31:34;12.20;99.90
18444;DHT22;9350;53.176;8.194;2022-10-22T01:34:02;12.20;99.90
18444;DHT22;9350;53.176;8.194;2022-10-22T01:36:30;12.20;99.90
18444;DHT22;9350;53.176;8.194;2022-10-22T01:39:00;12.20;99.90
18444;DHT22;9350;53.176;8.194;2022-10-22T01:41:27;12.20;99.90
18444;DHT22;9350;53.176;8.194;2022-10-22T01:43:54;12.20;99.90
18444;DHT22;9350;53.176;8.194;2022-10-22T01:46:24;12.10;99.90
18444;DHT22;9350;53.176;8.194;2022-10-22T01:49:14;12.10;99.90
18444;DHT22;9350;53.176;8.194;2022-10-22T01:51:50;12.10;99.90
18444;DHT22;9350;53.176;8.194;2022-10-22T01:54:25;12.10;99.90
18444;DHT22;9350;53.176;8.194;2022-10-22T01:57:04;12.10;99.90
18444;DHT22;9350;53.176;8.194;2022-10-22T01:59:41;12.10;99.90
18444;DHT22;9350;53.176;8.194;2022-10-22T02:02:19;12.00;99.90
18444;DHT22;9350;53.176;8.194;2022-10-22T02:04:54;12.10;99.90
18444;DHT22;9350;53.176;8.194;2022-10-22T02:07:27;12.10;99.90
18444;DHT22;9350;53.176;8.194;2022-10-22T02:09:57;12.00;99.90
18444;DHT22;9350;53.176;8.194;2022-10-22T02:12:25;12.00;99.90
18444;DHT22;9350;53.176;8.194;2022-10-22T02:14:54;12.00;99.90
18444;DHT22;9350;53.176;8.194;2022-10-22T02:17:24;12.00;99.90
18444;DHT22;9350;53.176;8.194;2022-10-22T02:19:55;12.00;99.90
18444;DHT22;9350;53.176;8.194;2022-10-22T02:22:24;12.00;99.90
18444;DHT22;9350;53.176;8.194;2022-10-22T02:24:51;12.00;99.90
18444;DHT22;9350;53.176;8.194;2022-10-22T02:27:22;12.00;99.90
18444;DHT22;9350;53.176;8.194;2022-10-22T02:29:55;11.90;99.90
18444;DHT22;9350;53.176;8.194;2022-10-22T02:32:27;12.00;99.90
18444;DHT22;9350;53.176;8.194;2022-10-22T02:34:56;12.00;99.90
18444;DHT22;9350;53.176;8.194;2022-10-22T02:37:25;12.10;99.90
18444;DHT22;9350;53.176;8.194;2022-10-22T02:39:53;12.00;99.90
18444;DHT22;9350;53.176;8.194;2022-10-22T02:42:21;12.00;99.90
18444;DHT22;9350;53.176;8.194;2022-10-22T02:44:48;12.00;99.90
18444;DHT22;9350;53.176;8.194;2022-10-22T02:47:15;12.00;99.90
18444;DHT22;9350;53.176;8.194;2022-10-22T02:49:43;12.00;99.90
18444;DHT22;9350;53.176;8.194;2022-10-22T02:52:09;12.00;99.90
18444;DHT22;9350;53.176;8.194;2022-10-22T02:54:36;12.10;99.90
18444;DHT22;9350;53.176;8.194;2022-10-22T02:57:03;12.20;99.90
18444;DHT22;9350;53.176;8.194;2022-10-22T02:59:29;12.10;99.90
18444;DHT22;9350;53.176;8.194;2022-10-22T03:01:56;12.10;99.90
18444;DHT22;9350;53.176;8.194;2022-10-22T03:04:23;12.00;99.90
18444;DHT22;9350;53.176;8.194;2022-10-22T03:06:51;12.10;99.90
18444;DHT22;9350;53.176;8.194;2022-10-22T03:09:18;12.10;99.90
18444;DHT22;9350;53.176;8.194;2022-10-22T03:11:44;12.10;99.90
18444;DHT22;9350;53.176;8.194;2022-10-22T03:14:11;12.10;99.90
18444;DHT22;9350;53.176;8.194;2022-10-22T03:16:38;12.10;99.90
18444;DHT22;9350;53.176;8.194;2022-10-22T03:19:05;12.10;99.90
18444;DHT22;9350;53.176;8.194;2022-10-22T03:21:35;12.10;99.90
18444;DHT22;9350;53.176;8.194;2022-10-22T03:24:08;12.20;99.90
18444;DHT22;9350;53.176;8.194;2022-10-22T03:26:36;12.10;99.90
18444;DHT22;9350;53.176;8.194;2022-10-22T03:29:05;12.50;99.90
18444;DHT22;9350;53.176;8.194;2022-10-22T03:31:31;12.10;99.90
18444;DHT22;9350;53.176;8.194;2022-10-22T03:33:58;12.10;99.90
18444;DHT22;9350;53.176;8.194;2022-10-22T03:36:25;12.10;99.90
18444;DHT22;9350;53.176;8.194;2022-10-22T03:38:52;12.10;99.90
18444;DHT22;9350;53.176;8.194;2022-10-22T03:41:20;12.10;99.90
18444;DHT22;9350;53.176;8.194;2022-10-22T03:43:47;12.20;99.90
18444;DHT22;9350;53.176;8.194;2022-10-22T03:46:17;12.20;99.90
18444;DHT22;9350;53.176;8.194;2022-10-22T03:48:44;12.10;99.90
18444;DHT22;9350;53.176;8.194;2022-10-22T03:51:11;12.20;99.90
18444;DHT22;9350;53.176;8.194;2022-10-22T03:53:38;12.20;99.90
18444;DHT22;9350;53.176;8.194;2022-10-22T03:56:07;12.20;99.90
18444;DHT22;9350;53.176;8.194;2022-10-22T03:58:35;12.20;99.90
18444;DHT22;9350;53.176;8.194;2022-10-22T04:01:07;12.30;99.90
18444;DHT22;9350;53.176;8.194;2022-10-22T04:03:34;12.20;99.90
18444;DHT22;9350;53.176;8.194;2022-10-22T04:06:01;12.20;99.90
18444;DHT22;9350;53.176;8.194;2022-10-22T04:08:28;12.20;99.90
18444;DHT22;9350;53.176;8.194;2022-10-22T04:10:55;12.10;99.90
18444;DHT22;9350;53.176;8.194;2022-10-22T04:13:22;12.20;99.90
18444;DHT22;9350;53.176;8.194;2022-10-22T04:15:50;12.20;99.90
18444;DHT22;9350;53.176;8.194;2022-10-22T04:18:17;12.10;99.90
18444;DHT22;9350;53.176;8.194;2022-10-22T04:20:44;12.10;99.90
18444;DHT22;9350;53.176;8.194;2022-10-22T04:23:11;12.10;99.90
18444;DHT22;9350;53.176;8.194;2022-10-22T04:25:38;12.00;99.90
18444;DHT22;9350;53.176;8.194;2022-10-22T04:28:06;12.00;99.90
18444;DHT22;9350;53.176;8.194;2022-10-22T04:30:33;12.00;99.90
18444;DHT22;9350;53.176;8.194;2022-10-22T04:33:01;12.10;99.90
18444;DHT22;9350;53.176;8.194;2022-10-22T04:35:28;12.00;99.90
18444;DHT22;9350;53.176;8.194;2022-10-22T04:37:55;12.00;99.90
18444;DHT22;9350;53.176;8.194;2022-10-22T04:40:22;11.90;99.90
18444;DHT22;9350;53.176;8.194;2022-10-22T04:42:48;11.90;99.90
18444;DHT22;9350;53.176;8.194;2022-10-22T04:45:15;11.90;99.90
18444;DHT22;9350;53.176;8.194;2022-10-22T04:47:42;11.90;99.90
18444;DHT22;9350;53.176;8.194;2022-10-22T04:50:10;11.90;99.90
18444;DHT22;9350;53.176;8.194;2022-10-22T04:52:36;11.90;99.90
18444;DHT22;9350;53.176;8.194;2022-10-22T04:55:04;11.80;99.90
18444;DHT22;9350;53.176;8.194;2022-10-22T04:57:31;11.80;99.90
18444;DHT22;9350;53.176;8.194;2022-10-22T04:59:57;11.80;99.90
18444;DHT22;9350;53.176;8.194;2022-10-22T05:02:24;11.80;99.90
18444;DHT22;9350;53.176;8.194;2022-10-22T05:04:51;11.80;99.90
18444;DHT22;9350;53.176;8.194;2022-10-22T05:07:19;11.70;99.90
18444;DHT22;9350;53.176;8.194;2022-10-22T05:09:46;11.80;99.90
18444;DHT22;9350;53.176;8.194;2022-10-22T05:12:12;11.70;99.90
18444;DHT22;9350;53.176;8.194;2022-10-22T05:14:39;11.80;99.90
18444;DHT22;9350;53.176;8.194;2022-10-22T05:17:06;11.70;99.90
18444;DHT22;9350;53.176;8.194;2022-10-22T05:19:32;11.60;99.90
18444;DHT22;9350;53.176;8.194;2022-10-22T05:22:00;11.70;99.90
18444;DHT22;9350;53.176;8.194;2022-10-22T05:24:30;11.70;99.90
18444;DHT22;9350;53.176;8.194;2022-10-22T05:26:58;11.70;99.90
18444;DHT22;9350;53.176;8.194;2022-10-22T05:29:26;11.60;99.90
18444;DHT22;9350;53.176;8.194;2022-10-22T05:31:53;11.70;99.90
18444;DHT22;9350;53.176;8.194;2022-10-22T05:34:20;11.60;99.90
18444;DHT22;9350;53.176;8.194;2022-10-22T05:36:47;11.70;99.90
18444;DHT22;9350;53.176;8.194;2022-10-22T05:39:14;11.70;99.90
18444;DHT22;9350;53.176;8.194;2022-10-22T05:41:42;11.70;99.90
18444;DHT22;9350;53.176;8.194;2022-10-22T05:44:11;11.70;99.90
18444;DHT22;9350;53.176;8.194;2022-10-22T05:46:38;11.70;99.90
18444;DHT22;9350;53.176;8.194;2022-10-22T05:49:06;11.70;99.90
18444;DHT22;9350;53.176;8.194;2022-10-22T05:51:34;11.70;99.90
18444;DHT22;9350;53.176;8.194;2022-10-22T05:54:03;11.70;99.90
18444;DHT22;9350;53.176;8.194;2022-10-22T05:56:30;11.70;99.90
18444;DHT22;9350;53.176;8.194;2022-10-22T05:58:59;11.70;99.90
18444;DHT22;9350;53.176;8.194;2022-10-22T06:01:27;11.70;99.90
18444;DHT22;9350;53.176;8.194;2022-10-22T06:03:56;11.60;99.90
18444;DHT22;9350;53.176;8.194;2022-10-22T06:06:26;11.70;99.90
18444;DHT22;9350;53.176;8.194;2022-10-22T06:08:55;11.70;99.90
18444;DHT22;9350;53.176;8.194;2022-10-22T06:11:22;11.70;99.90
18444;DHT22;9350;53.176;8.194;2022-10-22T06:13:50;11.70;99.90
18444;DHT22;9350;53.176;8.194;2022-10-22T06:16:18;11.60;99.90
18444;DHT22;9350;53.176;8.194;2022-10-22T06:18:45;11.60;99.90
18444;DHT22;9350;53.176;8.194;2022-10-22T06:21:14;11.60;99.90
18444;DHT22;9350;53.176;8.194;2022-10-22T06:23:41;11.70;99.90
18444;DHT22;9350;53.176;8.194;2022-10-22T06:26:09;11.60;99.90
18444;DHT22;9350;53.176;8.194;2022-10-22T06:28:36;11.60;99.90
18444;DHT22;9350;53.176;8.194;2022-10-22T06:31:04;11.60;99.90
18444;DHT22;9350;53.176;8.194;2022-10-22T06:33:33;11.60;99.90
18444;DHT22;9350;53.176;8.194;2022-10-22T06:36:07;11.70;99.90
18444;DHT22;9350;53.176;8.194;2022-10-22T06:38:34;11.70;99.90
18444;DHT22;9350;53.176;8.194;2022-10-22T06:41:02;11.60;99.90
18444;DHT22;9350;53.176;8.194;2022-10-22T06:43:29;11.70;99.90
18444;DHT22;9350;53.176;8.194;2022-10-22T06:45:58;11.80;99.90
18444;DHT22;9350;53.176;8.194;2022-10-22T06:48:26;11.70;99.90
18444;DHT22;9350;53.176;8.194;2022-10-22T06:50:54;11.80;99.90
18444;DHT22;9350;53.176;8.194;2022-10-22T06:53:21;11.80;99.90
18444;DHT22;9350;53.176;8.194;2022-10-22T06:55:47;11.90;99.90
18444;DHT22;9350;53.176;8.194;2022-10-22T06:58:14;12.00;99.90
18444;DHT22;9350;53.176;8.194;2022-10-22T07:00:41;12.00;99.90
18444;DHT22;9350;53.176;8.194;2022-10-22T07:03:09;12.10;99.90
18444;DHT22;9350;53.176;8.194;2022-10-22T07:05:37;12.20;99.90
18444;DHT22;9350;53.176;8.194;2022-10-22T07:08:06;12.20;99.90
18444;DHT22;9350;53.176;8.194;2022-10-22T07:10:33;12.20;99.90
18444;DHT22;9350;53.176;8.194;2022-10-22T07:12:59;12.30;99.90
18444;DHT22;9350;53.176;8.194;2022-10-22T07:15:26;12.30;99.90
18444;DHT22;9350;53.176;8.194;2022-10-22T07:17:53;12.40;99.90
18444;DHT22;9350;53.176;8.194;2022-10-22T07:20:19;12.40;99.90
18444;DHT22;9350;53.176;8.194;2022-10-22T07:22:46;12.50;99.90
18444;DHT22;9350;53.176;8.194;2022-10-22T07:25:14;12.50;99.90
18444;DHT22;9350;53.176;8.194;2022-10-22T07:27:41;12.60;99.90
18444;DHT22;9350;53.176;8.194;2022-10-22T07:30:08;12.60;99.90
18444;DHT22;9350;53.176;8.194;2022-10-22T07:32:35;12.60;99.90
18444;DHT22;9350;53.176;8.194;2022-10-22T07:35:03;12.70;99.90
18444;DHT22;9350;53.176;8.194;2022-10-22T07:37:30;12.70;99.90
18444;DHT22;9350;53.176;8.194;2022-10-22T07:39:56;12.70;99.90
18444;DHT22;9350;53.176;8.194;2022-10-22T07:42:24;12.70;99.90
18444;DHT22;9350;53.176;8.194;2022-10-22T07:44:51;12.70;99.90
18444;DHT22;9350;53.176;8.194;2022-10-22T07:47:18;12.70;99.90
18444;DHT22;9350;53.176;8.194;2022-10-22T07:49:44;12.70;99.90
18444;DHT22;9350;53.176;8.194;2022-10-22T07:52:11;12.80;99.90
18444;DHT22;9350;53.176;8.194;2022-10-22T07:54:38;12.80;99.90
18444;DHT22;9350;53.176;8.194;2022-10-22T07:57:04;12.80;99.90
18444;DHT22;9350;53.176;8.194;2022-10-22T07:59:32;12.80;99.90
18444;DHT22;9350;53.176;8.194;2022-10-22T08:01:59;12.80;99.90
18444;DHT22;9350;53.176;8.194;2022-10-22T08:04:26;12.90;99.90
18444;DHT22;9350;53.176;8.194;2022-10-22T08:06:53;12.90;99.90
18444;DHT22;9350;53.176;8.194;2022-10-22T08:09:19;12.90;99.90
18444;DHT22;9350;53.176;8.194;2022-10-22T08:11:46;13.00;99.90
18444;DHT22;9350;53.176;8.194;2022-10-22T08:14:13;13.00;99.90
18444;DHT22;9350;53.176;8.194;2022-10-22T08:16:41;13.00;99.90
18444;DHT22;9350;53.176;8.194;2022-10-22T08:19:08;13.00;99.90
18444;DHT22;9350;53.176;8.194;2022-10-22T08:21:34;13.10;99.90
18444;DHT22;9350;53.176;8.194;2022-10-22T08:24:01;13.10;99.90
18444;DHT22;9350;53.176;8.194;2022-10-22T08:26:28;13.10;99.90
18444;DHT22;9350;53.176;8.194;2022-10-22T08:28:54;13.10;99.90
18444;DHT22;9350;53.176;8.194;2022-10-22T08:31:21;13.20;99.90
18444;DHT22;9350;53.176;8.194;2022-10-22T08:33:49;13.20;99.90
18444;DHT22;9350;53.176;8.194;2022-10-22T08:36:16;13.30;99.90
18444;DHT22;9350;53.176;8.194;2022-10-22T08:38:43;13.30;99.90
18444;DHT22;9350;53.176;8.194;2022-10-22T08:41:12;13.40;99.90
18444;DHT22;9350;53.176;8.194;2022-10-22T08:44:06;13.30;99.90
18444;DHT22;9350;53.176;8.194;2022-10-22T08:46:58;13.40;99.90
18444;DHT22;9350;53.176;8.194;2022-10-22T08:49:33;13.50;99.90
18444;DHT22;9350;53.176;8.194;2022-10-22T08:52:01;13.50;99.90
18444;DHT22;9350;53.176;8.194;2022-10-22T08:54:36;13.60;99.90
18444;DHT22;9350;53.176;8.194;2022-10-22T08:57:26;13.60;99.90
18444;DHT22;9350;53.176;8.194;2022-10-22T09:00:02;13.60;99.90
18444;DHT22;9350;53.176;8.194;2022-10-22T09:02:36;13.70;99.90
18444;DHT22;9350;53.176;8.194;2022-10-22T09:05:18;13.60;99.90
18444;DHT22;9350;53.176;8.194;2022-10-22T09:07:47;13.70;99.90
18444;DHT22;9350;53.176;8.194;2022-10-22T09:10:15;13.70;99.90
18444;DHT22;9350;53.176;8.194;2022-10-22T09:12:42;13.70;99.90
18444;DHT22;9350;53.176;8.194;2022-10-22T09:15:12;13.80;99.90
18444;DHT22;9350;53.176;8.194;2022-10-22T09:17:49;13.70;99.90
18444;DHT22;9350;53.176;8.194;2022-10-22T09:20:23;13.80;99.90
18444;DHT22;9350;53.176;8.194;2022-10-22T09:23:15;13.90;99.90
18444;DHT22;9350;53.176;8.194;2022-10-22T09:25:45;13.90;99.90
18444;DHT22;9350;53.176;8.194;2022-10-22T09:28:14;13.90;99.90
18444;DHT22;9350;53.176;8.194;2022-10-22T09:30:41;13.90;99.90
18444;DHT22;9350;53.176;8.194;2022-10-22T09:33:12;14.00;99.90
18444;DHT22;9350;53.176;8.194;2022-10-22T09:35:46;14.10;99.90
18444;DHT22;9350;53.176;8.194;2022-10-22T09:38:16;14.10;99.90
18444;DHT22;9350;53.176;8.194;2022-10-22T09:40:46;14.10;99.90
18444;DHT22;9350;53.176;8.194;2022-10-22T09:43:14;14.20;99.90
18444;DHT22;9350;53.176;8.194;2022-10-22T09:45:41;14.20;99.90
18444;DHT22;9350;53.176;8.194;2022-10-22T09:48:13;14.10;99.90
18444;DHT22;9350;53.176;8.194;2022-10-22T09:50:45;14.20;99.90
18444;DHT22;9350;53.176;8.194;2022-10-22T09:53:16;14.30;99.90
18444;DHT22;9350;53.176;8.194;2022-10-22T09:55:49;14.20;99.90
18444;DHT22;9350;53.176;8.194;2022-10-22T09:58:16;14.30;99.90
18444;DHT22;9350;53.176;8.194;2022-10-22T10:00:46;14.40;99.90
18444;DHT22;9350;53.176;8.194;2022-10-22T10:03:17;14.40;99.90
18444;DHT22;9350;53.176;8.194;2022-10-22T10:05:48;14.50;99.90
18444;DHT22;9350;53.176;8.194;2022-10-22T10:08:16;14.60;99.90
18444;DHT22;9350;53.176;8.194;2022-10-22T10:10:46;14.60;99.90
18444;DHT22;9350;53.176;8.194;2022-10-22T10:13:23;14.60;99.90
18444;DHT22;9350;53.176;8.194;2022-10-22T10:15:56;14.70;99.90
18444;DHT22;9350;53.176;8.194;2022-10-22T10:18:33;14.70;99.90
18444;DHT22;9350;53.176;8.194;2022-10-22T10:21:15;14.70;99.90
18444;DHT22;9350;53.176;8.194;2022-10-22T10:23:50;14.80;99.90
18444;DHT22;9350;53.176;8.194;2022-10-22T10:26:24;14.80;99.90
18444;DHT22;9350;53.176;8.194;2022-10-22T10:29:01;14.80;99.90
18444;DHT22;9350;53.176;8.194;2022-10-22T10:31:40;14.80;99.90
18444;DHT22;9350;53.176;8.194;2022-10-22T10:34:16;14.80;99.90
18444;DHT22;9350;53.176;8.194;2022-10-22T10:36:53;14.90;99.90
18444;DHT22;9350;53.176;8.194;2022-10-22T10:39:26;14.90;99.90
18444;DHT22;9350;53.176;8.194;2022-10-22T10:42:00;14.90;99.90
18444;DHT22;9350;53.176;8.194;2022-10-22T10:44:41;15.00;99.90
18444;DHT22;9350;53.176;8.194;2022-10-22T10:47:25;15.10;99.90
18444;DHT22;9350;53.176;8.194;2022-10-22T10:50:17;15.10;99.90
18444;DHT22;9350;53.176;8.194;2022-10-22T10:52:54;15.20;99.90
18444;DHT22;9350;53.176;8.194;2022-10-22T10:55:28;15.20;99.90
18444;DHT22;9350;53.176;8.194;2022-10-22T10:58:02;15.20;99.90
18444;DHT22;9350;53.176;8.194;2022-10-22T11:00:36;15.30;99.90
18444;DHT22;9350;53.176;8.194;2022-10-22T11:03:27;15.30;99.90
18444;DHT22;9350;53.176;8.194;2022-10-22T11:06:02;15.40;99.90
18444;DHT22;9350;53.176;8.194;2022-10-22T11:08:35;15.40;99.90
18444;DHT22;9350;53.176;8.194;2022-10-22T11:11:05;15.40;99.90
18444;DHT22;9350;53.176;8.194;2022-10-22T11:13:37;15.40;99.90
18444;DHT22;9350;53.176;8.194;2022-10-22T11:16:10;15.40;99.90
18444;DHT22;9350;53.176;8.194;2022-10-22T11:18:43;15.50;99.90
18444;DHT22;9350;53.176;8.194;2022-10-22T11:21:18;15.50;99.90
18444;DHT22;9350;53.176;8.194;2022-10-22T11:23:50;15.40;99.90
18444;DHT22;9350;53.176;8.194;2022-10-22T11:26:30;15.50;99.90
18444;DHT22;9350;53.176;8.194;2022-10-22T11:29:00;15.40;99.90
18444;DHT22;9350;53.176;8.194;2022-10-22T11:31:29;15.50;99.90
18444;DHT22;9350;53.176;8.194;2022-10-22T11:34:02;15.50;99.90
18444;DHT22;9350;53.176;8.194;2022-10-22T11:36:31;15.50;99.90
18444;DHT22;9350;53.176;8.194;2022-10-22T11:39:02;15.50;99.90
18444;DHT22;9350;53.176;8.194;2022-10-22T11:41:32;15.50;99.90
18444;DHT22;9350;53.176;8.194;2022-10-22T11:44:08;15.50;99.90
18444;DHT22;9350;53.176;8.194;2022-10-22T11:46:54;15.60;99.90
18444;DHT22;9350;53.176;8.194;2022-10-22T11:49:24;15.50;99.90
18444;DHT22;9350;53.176;8.194;2022-10-22T11:52:05;15.60;99.90
18444;DHT22;9350;53.176;8.194;2022-10-22T11:54:49;15.50;99.90
18444;DHT22;9350;53.176;8.194;2022-10-22T11:57:20;15.50;99.90
18444;DHT22;9350;53.176;8.194;2022-10-22T11:59:51;15.50;99.90
18444;DHT22;9350;53.176;8.194;2022-10-22T12:05:35;15.50;99.90
18444;DHT22;9350;53.176;8.194;2022-10-22T12:08:13;15.60;99.90
18444;DHT22;9350;53.176;8.194;2022-10-22T12:10:55;15.60;99.90
18444;DHT22;9350;53.176;8.194;2022-10-22T12:13:24;15.50;99.90
18444;DHT22;9350;53.176;8.194;2022-10-22T12:15:53;15.50;99.90
18444;DHT22;9350;53.176;8.194;2022-10-22T12:18:23;15.60;99.90
18444;DHT22;9350;53.176;8.194;2022-10-22T12:20:52;15.70;99.90
18444;DHT22;9350;53.176;8.194;2022-10-22T12:23:20;15.60;99.90
18444;DHT22;9350;53.176;8.194;2022-10-22T12:25:51;15.50;99.90
18444;DHT22;9350;53.176;8.194;2022-10-22T12:28:18;15.50;99.90
18444;DHT22;9350;53.176;8.194;2022-10-22T12:30:44;15.50;99.90
18444;DHT22;9350;53.176;8.194;2022-10-22T12:33:18;15.50;99.90
18444;DHT22;9350;53.176;8.194;2022-10-22T12:35:46;15.50;99.90
18444;DHT22;9350;53.176;8.194;2022-10-22T12:38:17;15.50;99.90
18444;DHT22;9350;53.176;8.194;2022-10-22T12:40:45;15.60;99.90
18444;DHT22;9350;53.176;8.194;2022-10-22T12:43:15;15.50;99.90
18444;DHT22;9350;53.176;8.194;2022-10-22T12:45:44;15.50;99.90
18444;DHT22;9350;53.176;8.194;2022-10-22T12:48:15;15.50;99.90
18444;DHT22;9350;53.176;8.194;2022-10-22T12:50:44;15.50;99.90
18444;DHT22;9350;53.176;8.194;2022-10-22T12:53:14;15.60;99.90
18444;DHT22;9350;53.176;8.194;2022-10-22T12:55:45;15.50;99.90
18444;DHT22;9350;53.176;8.194;2022-10-22T12:58:18;15.50;99.90
18444;DHT22;9350;53.176;8.194;2022-10-22T13:00:46;15.50;99.90
18444;DHT22;9350;53.176;8.194;2022-10-22T13:03:25;15.50;99.90
18444;DHT22;9350;53.176;8.194;2022-10-22T13:05:52;15.40;99.90
18444;DHT22;9350;53.176;8.194;2022-10-22T13:08:21;15.40;99.90
18444;DHT22;9350;53.176;8.194;2022-10-22T13:10:50;15.40;99.90
18444;DHT22;9350;53.176;8.194;2022-10-22T13:13:33;15.50;99.90
18444;DHT22;9350;53.176;8.194;2022-10-22T13:16:18;15.50;99.90
18444;DHT22;9350;53.176;8.194;2022-10-22T13:18:45;15.40;99.90
18444;DHT22;9350;53.176;8.194;2022-10-22T13:21:24;15.50;99.90
18444;DHT22;9350;53.176;8.194;2022-10-22T13:23:54;15.40;99.90
18444;DHT22;9350;53.176;8.194;2022-10-22T13:26:21;15.40;99.90
18444;DHT22;9350;53.176;8.194;2022-10-22T13:28:52;15.40;99.90
18444;DHT22;9350;53.176;8.194;2022-10-22T13:31:23;15.40;99.90
18444;DHT22;9350;53.176;8.194;2022-10-22T13:33:52;15.30;99.90
18444;DHT22;9350;53.176;8.194;2022-10-22T13:36:20;15.30;99.90
18444;DHT22;9350;53.176;8.194;2022-10-22T13:38:47;15.40;99.90
18444;DHT22;9350;53.176;8.194;2022-10-22T13:41:18;15.40;99.90
18444;DHT22;9350;53.176;8.194;2022-10-22T13:43:45;15.40;99.90
18444;DHT22;9350;53.176;8.194;2022-10-22T13:46:13;15.40;99.90
18444;DHT22;9350;53.176;8.194;2022-10-22T13:48:40;15.50;99.90
18444;DHT22;9350;53.176;8.194;2022-10-22T13:51:13;15.50;99.90
18444;DHT22;9350;53.176;8.194;2022-10-22T13:53:40;15.50;99.90
18444;DHT22;9350;53.176;8.194;2022-10-22T13:56:11;15.50;99.90
18444;DHT22;9350;53.176;8.194;2022-10-22T13:58:40;15.50;99.90
18444;DHT22;9350;53.176;8.194;2022-10-22T14:01:15;15.50;99.90
18444;DHT22;9350;53.176;8.194;2022-10-22T14:03:43;15.50;99.90
18444;DHT22;9350;53.176;8.194;2022-10-22T14:06:12;15.40;99.90
18444;DHT22;9350;53.176;8.194;2022-10-22T14:08:40;15.40;99.90
18444;DHT22;9350;53.176;8.194;2022-10-22T14:11:08;15.40;99.90
18444;DHT22;9350;53.176;8.194;2022-10-22T14:13:35;15.40;99.90
18444;DHT22;9350;53.176;8.194;2022-10-22T14:16:03;15.40;99.90
18444;DHT22;9350;53.176;8.194;2022-10-22T14:18:32;15.40;99.90
18444;DHT22;9350;53.176;8.194;2022-10-22T14:21:02;15.50;99.90
18444;DHT22;9350;53.176;8.194;2022-10-22T14:23:32;15.50;99.90
18444;DHT22;9350;53.176;8.194;2022-10-22T14:26:00;15.50;99.90
18444;DHT22;9350;53.176;8.194;2022-10-22T14:28:27;15.50;99.90
18444;DHT22;9350;53.176;8.194;2022-10-22T14:30:54;15.50;99.90
18444;DHT22;9350;53.176;8.194;2022-10-22T14:33:23;15.40;99.90
18444;DHT22;9350;53.176;8.194;2022-10-22T14:35:52;15.40;99.90
18444;DHT22;9350;53.176;8.194;2022-10-22T14:38:19;15.40;99.90
18444;DHT22;9350;53.176;8.194;2022-10-22T14:40:46;15.40;99.90
18444;DHT22;9350;53.176;8.194;2022-10-22T14:43:17;15.40;99.90
18444;DHT22;9350;53.176;8.194;2022-10-22T14:45:45;15.40;99.90
18444;DHT22;9350;53.176;8.194;2022-10-22T14:48:12;15.40;99.90
18444;DHT22;9350;53.176;8.194;2022-10-22T14:50:40;15.30;99.90
18444;DHT22;9350;53.176;8.194;2022-10-22T14:53:08;15.40;99.90
18444;DHT22;9350;53.176;8.194;2022-10-22T14:55:35;15.40;99.90
18444;DHT22;9350;53.176;8.194;2022-10-22T14:58:02;15.30;99.90
18444;DHT22;9350;53.176;8.194;2022-10-22T15:00:29;15.30;99.90
18444;DHT22;9350;53.176;8.194;2022-10-22T15:02:55;15.30;99.90
18444;DHT22;9350;53.176;8.194;2022-10-22T15:05:24;15.30;99.90
18444;DHT22;9350;53.176;8.194;2022-10-22T15:07:50;15.30;99.90
18444;DHT22;9350;53.176;8.194;2022-10-22T15:10:18;15.30;99.90
18444;DHT22;9350;53.176;8.194;2022-10-22T15:12:45;15.30;99.90
18444;DHT22;9350;53.176;8.194;2022-10-22T15:15:12;15.30;99.90
18444;DHT22;9350;53.176;8.194;2022-10-22T15:17:39;15.30;99.90
18444;DHT22;9350;53.176;8.194;2022-10-22T15:20:06;15.30;99.90
18444;DHT22;9350;53.176;8.194;2022-10-22T15:22:33;15.30;99.90
18444;DHT22;9350;53.176;8.194;2022-10-22T15:25:01;15.30;99.90
18444;DHT22;9350;53.176;8.194;2022-10-22T15:27:29;15.30;99.90
18444;DHT22;9350;53.176;8.194;2022-10-22T15:29:56;15.30;99.90
18444;DHT22;9350;53.176;8.194;2022-10-22T15:32:23;15.30;99.90
18444;DHT22;9350;53.176;8.194;2022-10-22T15:34:52;15.30;99.90
18444;DHT22;9350;53.176;8.194;2022-10-22T15:37:19;15.30;99.90
18444;DHT22;9350;53.176;8.194;2022-10-22T15:39:45;15.30;99.90
18444;DHT22;9350;53.176;8.194;2022-10-22T15:42:12;15.30;99.90
18444;DHT22;9350;53.176;8.194;2022-10-22T15:44:40;15.30;99.90
18444;DHT22;9350;53.176;8.194;2022-10-22T15:47:07;15.30;99.90
18444;DHT22;9350;53.176;8.194;2022-10-22T15:49:37;15.30;99.90
18444;DHT22;9350;53.176;8.194;2022-10-22T15:52:04;15.20;99.90
18444;DHT22;9350;53.176;8.194;2022-10-22T15:54:31;15.30;99.90
18444;DHT22;9350;53.176;8.194;2022-10-22T15:56:59;15.30;99.90
18444;DHT22;9350;53.176;8.194;2022-10-22T15:59:28;15.20;99.90
18444;DHT22;9350;53.176;8.194;2022-10-22T16:01:56;15.20;99.90
18444;DHT22;9350;53.176;8.194;2022-10-22T16:04:23;15.20;99.90
18444;DHT22;9350;53.176;8.194;2022-10-22T16:06:51;15.20;99.90